24°C Temp
10°C Dewpoint
% Humidity
Temperature
11 KM/H
7 MPH
6 KTS
150°
South South
East

Wind Speed
Clear
Conditions
Pressure 1018.92 (hPa) - 30.09 (in)
Visibility 6.2 (mi) - 10.0 (km)

Current Conditions
EFHK
Location 67(km)
Metar :EFHK 261850Z 15006KT CAVOK 24/10 Q1019 NOSIG
Mon 26th July 20:50 pm

Airport
  Metar Aviation API Data Provided by https://www.checkwx.com/ PHP scripts by weather34.com ©2021